Time,TemperatureF,DewpointF,PressureIn,WindDirection,WindDirectionDegrees,WindSpeedMPH,WindSpeedGustMPH,Humidity,HourlyPrecipIn,Conditions,Clouds,dailyrainin,SoftwareType,DateUTC
2013-05-24 00:01:00,59.0,21.0,30.08,SSW,199,3.0,7.0,23,0.00,,,0.00,,2013-05-24 07:01:00,
2013-05-24 00:11:00,59.0,21.0,30.08,SSW,199,3.0,7.0,23,0.00,,,0.00,,2013-05-24 07:11:00,
2013-05-24 00:21:00,59.0,21.0,30.08,SW,217,4.0,16.0,23,0.00,,,0.00,,2013-05-24 07:21:00,
2013-05-24 00:31:00,59.0,21.0,30.09,WSW,239,7.0,15.0,23,0.00,,,0.00,,2013-05-24 07:31:00,
2013-05-24 00:41:00,59.0,21.0,30.09,WSW,239,7.0,15.0,23,0.00,,,0.00,,2013-05-24 07:41:00,
2013-05-24 00:52:00,59.0,21.0,30.09,North,0,0.0,14.0,23,0.00,,,0.00,,2013-05-24 07:52:00,
2013-05-24 01:02:00,59.0,21.0,30.09,North,0,0.0,14.0,23,0.00,,,0.00,,2013-05-24 08:02:00,
2013-05-24 01:11:00,59.0,21.0,30.09,North,0,0.0,14.0,23,0.00,,,0.00,,2013-05-24 08:11:00,
2013-05-24 01:22:00,57.0,22.0,30.09,SW,225,1.0,5.0,25,0.00,,,0.00,,2013-05-24 08:22:00,
2013-05-24 01:32:00,57.0,22.0,30.09,SW,214,3.0,10.0,25,0.00,,,0.00,,2013-05-24 08:32:00,
2013-05-24 01:42:00,57.0,22.0,30.09,SW,214,3.0,10.0,25,0.00,,,0.00,,2013-05-24 08:42:00,
2013-05-24 01:52:00,57.0,22.0,30.09,SW,214,3.0,10.0,25,0.00,,,0.00,,2013-05-24 08:52:00,
2013-05-24 02:01:00,55.0,21.0,30.10,SSW,193,3.0,7.0,26,0.00,,,0.00,,2013-05-24 09:01:00,
2013-05-24 02:11:00,55.0,21.0,30.10,SSW,193,3.0,7.0,26,0.00,,,0.00,,2013-05-24 09:11:00,
2013-05-24 02:21:00,54.0,20.0,30.10,SSE,163,4.0,8.0,26,0.00,,,0.00,,2013-05-24 09:21:00,
2013-05-24 02:32:00,54.0,21.0,30.11,South,179,2.0,8.0,27,0.00,,,0.00,,2013-05-24 09:32:00,
2013-05-24 02:42:00,54.0,21.0,30.11,South,179,2.0,8.0,27,0.00,,,0.00,,2013-05-24 09:42:00,
2013-05-24 02:52:00,52.0,20.0,30.11,North,0,0.0,4.0,28,0.00,,,0.00,,2013-05-24 09:52:00,
2013-05-24 03:02:00,51.0,19.0,30.12,North,0,0.0,2.0,28,0.00,,,0.00,,2013-05-24 10:02:00,
2013-05-24 03:12:00,51.0,19.0,30.12,North,0,0.0,2.0,28,0.00,,,0.00,,2013-05-24 10:12:00,
2013-05-24 03:22:00,51.0,19.0,30.12,North,0,0.0,2.0,28,0.00,,,0.00,,2013-05-24 10:22:00,
2013-05-24 03:32:00,49.0,19.0,30.14,North,0,0.0,2.0,30,0.00,,,0.00,,2013-05-24 10:32:00,
2013-05-24 03:41:00,49.0,19.0,30.14,North,0,0.0,2.0,30,0.00,,,0.00,,2013-05-24 10:41:00,
2013-05-24 03:52:00,48.0,19.0,30.14,North,0,0.0,2.0,31,0.00,,,0.00,,2013-05-24 10:52:00,
2013-05-24 04:02:00,47.0,19.0,30.14,North,0,0.0,2.0,33,0.00,,,0.00,,2013-05-24 11:02:00,
2013-05-24 04:11:00,47.0,19.0,30.14,North,0,0.0,2.0,33,0.00,,,0.00,,2013-05-24 11:11:00,
2013-05-24 04:22:00,45.0,18.0,30.14,North,0,0.0,0.0,34,0.00,,,0.00,,2013-05-24 11:22:00,
2013-05-24 04:32:00,45.0,19.0,30.15,North,0,0.0,1.0,35,0.00,,,0.00,,2013-05-24 11:32:00,
2013-05-24 04:41:00,45.0,19.0,30.15,North,0,0.0,1.0,35,0.00,,,0.00,,2013-05-24 11:41:00,
2013-05-24 04:51:00,44.0,19.0,30.16,North,0,0.0,1.0,36,0.00,,,0.00,,2013-05-24 11:51:00,
2013-05-24 05:01:00,44.0,19.0,30.14,North,0,0.0,3.0,36,0.00,,,0.00,,2013-05-24 12:01:00,
2013-05-24 05:11:00,44.0,19.0,30.14,North,0,0.0,3.0,36,0.00,,,0.00,,2013-05-24 12:11:00,
2013-05-24 05:21:00,43.0,19.0,30.15,North,0,0.0,1.0,38,0.00,,,0.00,,2013-05-24 12:21:00,
2013-05-24 05:32:00,42.0,19.0,30.15,North,0,0.0,1.0,39,0.00,,,0.00,,2013-05-24 12:32:00,
2013-05-24 05:42:00,42.0,19.0,30.15,North,0,0.0,1.0,39,0.00,,,0.00,,2013-05-24 12:42:00,
2013-05-24 05:52:00,42.0,19.0,30.15,North,0,0.0,1.0,40,0.00,,,0.00,,2013-05-24 12:52:00,
2013-05-24 06:01:00,41.0,19.0,30.16,North,0,0.0,3.0,41,0.00,,,0.00,,2013-05-24 13:01:00,
2013-05-24 06:11:00,41.0,19.0,30.16,North,0,0.0,3.0,41,0.00,,,0.00,,2013-05-24 13:11:00,
2013-05-24 06:21:00,42.0,19.0,30.16,North,0,0.0,2.0,40,0.00,,,0.00,,2013-05-24 13:21:00,
2013-05-24 06:31:00,42.0,19.0,30.16,North,0,0.0,2.0,40,0.00,,,0.00,,2013-05-24 13:31:00,
2013-05-24 06:41:00,42.0,19.0,30.16,North,0,0.0,2.0,40,0.00,,,0.00,,2013-05-24 13:41:00,
2013-05-24 06:52:00,47.0,23.0,30.18,North,0,0.0,3.0,39,0.00,,,0.00,,2013-05-24 13:52:00,
2013-05-24 07:01:00,49.0,24.0,30.17,North,0,0.0,4.0,37,0.00,,,0.00,,2013-05-24 14:01:00,
2013-05-24 07:11:00,49.0,24.0,30.17,North,0,0.0,4.0,37,0.00,,,0.00,,2013-05-24 14:11:00,
2013-05-24 07:31:00,54.0,28.0,30.18,WSW,252,1.0,5.0,37,0.00,,,0.00,,2013-05-24 14:31:00,
2013-05-24 07:41:00,54.0,28.0,30.18,WSW,252,1.0,5.0,37,0.00,,,0.00,,2013-05-24 14:41:00,
2013-05-24 07:52:00,58.0,27.0,30.17,WSW,247,5.0,13.0,30,0.00,,,0.00,,2013-05-24 14:52:00,
2013-05-24 08:01:00,58.0,27.0,30.18,WSW,237,6.0,13.0,30,0.00,,,0.00,,2013-05-24 15:01:00,
2013-05-24 08:11:00,58.0,27.0,30.18,WSW,237,6.0,13.0,30,0.00,,,0.00,,2013-05-24 15:11:00,
2013-05-24 08:21:00,59.0,25.0,30.18,SSW,206,6.0,12.0,27,0.00,,,0.00,,2013-05-24 15:21:00,
2013-05-24 08:32:00,59.0,25.0,30.18,SSW,206,6.0,12.0,27,0.00,,,0.00,,2013-05-24 15:32:00,
2013-05-24 08:43:00,59.0,25.0,30.18,SSW,206,6.0,12.0,27,0.00,,,0.00,,2013-05-24 15:43:00,
2013-05-24 08:52:00,60.0,26.0,30.19,SW,228,6.0,11.0,27,0.00,,,0.00,,2013-05-24 15:52:00,
2013-05-24 09:03:00,60.0,26.0,30.19,SW,228,6.0,11.0,27,0.00,,,0.00,,2013-05-24 16:03:00,
2013-05-24 09:12:00,60.0,26.0,30.19,SW,228,6.0,11.0,27,0.00,,,0.00,,2013-05-24 16:12:00,
2013-05-24 09:22:00,63.0,21.0,30.19,SW,229,5.0,11.0,20,0.00,,,0.00,,2013-05-24 16:22:00,
2013-05-24 09:32:00,63.0,21.0,30.19,SW,229,5.0,11.0,20,0.00,,,0.00,,2013-05-24 16:32:00,
2013-05-24 09:42:00,63.0,21.0,30.19,SW,229,5.0,11.0,20,0.00,,,0.00,,2013-05-24 16:42:00,
2013-05-24 09:52:00,63.0,21.0,30.19,SW,229,5.0,11.0,20,0.00,,,0.00,,2013-05-24 16:52:00,
2013-05-24 10:02:00,65.0,16.0,30.19,SW,217,8.0,24.0,15,0.00,,,0.00,,2013-05-24 17:02:00,
2013-05-24 10:12:00,65.0,16.0,30.19,SW,217,8.0,24.0,15,0.00,,,0.00,,2013-05-24 17:12:00,
2013-05-24 10:22:00,66.0,17.0,30.19,SW,227,5.0,24.0,15,0.00,,,0.00,,2013-05-24 17:22:00,
2013-05-24 10:32:00,66.0,17.0,30.19,SW,227,5.0,24.0,15,0.00,,,0.00,,2013-05-24 17:32:00,
2013-05-24 10:41:00,66.0,17.0,30.19,SW,227,5.0,24.0,15,0.00,,,0.00,,2013-05-24 17:41:00,
2013-05-24 10:52:00,66.0,12.0,30.20,SSW,212,12.0,22.0,12,0.00,,,0.00,,2013-05-24 17:52:00,
2013-05-24 11:01:00,67.0,11.0,30.20,SW,223,12.0,22.0,11,0.00,,,0.00,,2013-05-24 18:01:00,
2013-05-24 11:11:00,67.0,11.0,30.20,SW,223,12.0,22.0,11,0.00,,,0.00,,2013-05-24 18:11:00,
2013-05-24 11:21:00,67.0,11.0,30.20,SW,222,12.0,25.0,11,0.00,,,0.00,,2013-05-24 18:21:00,
2013-05-24 11:31:00,67.0,9.0,30.20,SSW,209,10.0,21.0,10,0.00,,,0.00,,2013-05-24 18:31:00,
2013-05-24 11:41:00,67.0,9.0,30.20,SSW,209,10.0,21.0,10,0.00,,,0.00,,2013-05-24 18:41:00,
2013-05-24 11:51:00,68.0,9.0,30.20,SSW,210,12.0,21.0,10,0.00,,,0.00,,2013-05-24 18:51:00,
2013-05-24 12:01:00,68.0,12.0,30.19,SW,218,10.0,22.0,11,0.00,,,0.00,,2013-05-24 19:01:00,
2013-05-24 12:11:00,68.0,12.0,30.19,SW,218,10.0,22.0,11,0.00,,,0.00,,2013-05-24 19:11:00,
2013-05-24 12:21:00,70.0,11.0,30.18,SSW,205,7.0,20.0,10,0.00,,,0.00,,2013-05-24 19:21:00,
2013-05-24 12:31:00,70.0,11.0,30.18,SSW,205,7.0,20.0,10,0.00,,,0.00,,2013-05-24 19:31:00,
2013-05-24 12:41:00,70.0,11.0,30.18,SSW,205,7.0,20.0,10,0.00,,,0.00,,2013-05-24 19:41:00,
2013-05-24 12:52:00,70.0,11.0,30.18,SW,223,7.0,20.0,10,0.00,,,0.00,,2013-05-24 19:52:00,
2013-05-24 13:02:00,70.0,11.0,30.18,SW,223,7.0,20.0,10,0.00,,,0.00,,2013-05-24 20:02:00,
2013-05-24 13:11:00,70.0,11.0,30.18,SW,223,7.0,20.0,10,0.00,,,0.00,,2013-05-24 20:11:00,
2013-05-24 13:21:00,70.0,11.0,30.18,SW,223,7.0,20.0,10,0.00,,,0.00,,2013-05-24 20:21:00,
2013-05-24 15:02:00,72.0,12.0,30.16,SSW,204,9.0,23.0,10,0.00,,,0.00,,2013-05-24 22:02:00,
2013-05-24 15:11:00,73.0,11.0,30.15,WSW,237,12.0,23.0,9,0.00,,,0.00,,2013-05-24 22:11:00,
2013-05-24 15:12:00,72.0,12.0,30.16,SSW,204,9.0,23.0,10,0.00,,,0.00,,2013-05-24 22:12:00,
2013-05-24 15:22:00,73.0,13.0,30.15,WSW,242,8.0,18.0,10,0.00,,,0.00,,2013-05-24 22:22:00,
2013-05-24 15:32:00,73.0,11.0,30.15,WSW,237,12.0,23.0,9,0.00,,,0.00,,2013-05-24 22:32:00,
2013-05-24 15:42:00,73.0,11.0,30.15,WSW,237,12.0,23.0,9,0.00,,,0.00,,2013-05-24 22:42:00,
2013-05-24 15:52:00,73.0,11.0,30.15,WSW,237,12.0,23.0,9,0.00,,,0.00,,2013-05-24 22:52:00,
2013-05-24 16:02:00,73.0,11.0,30.15,WSW,237,12.0,23.0,9,0.00,,,0.00,,2013-05-24 23:02:00,
2013-05-24 16:22:00,73.0,11.0,30.14,SW,232,13.0,27.0,9,0.00,,,0.00,,2013-05-24 23:22:00,
2013-05-24 16:32:00,72.0,7.0,30.14,SW,230,14.0,24.0,8,0.00,,,0.00,,2013-05-24 23:32:00,
2013-05-24 16:42:00,72.0,7.0,30.14,SW,230,14.0,24.0,8,0.00,,,0.00,,2013-05-24 23:42:00,
2013-05-24 16:52:00,72.0,7.0,30.14,SW,230,14.0,24.0,8,0.00,,,0.00,,2013-05-24 23:52:00,
2013-05-24 17:01:00,72.0,7.0,30.14,WSW,238,15.0,29.0,8,0.00,,,0.00,,2013-05-25 00:01:00,
2013-05-24 17:11:00,72.0,7.0,30.14,WSW,238,15.0,29.0,8,0.00,,,0.00,,2013-05-25 00:11:00,
2013-05-24 17:21:00,71.0,7.0,30.14,SSW,213,11.0,24.0,8,0.00,,,0.00,,2013-05-25 00:21:00,
2013-05-24 17:32:00,72.0,7.0,30.14,WSW,250,11.0,22.0,8,0.00,,,0.00,,2013-05-25 00:32:00,
2013-05-24 17:41:00,72.0,7.0,30.14,WSW,250,11.0,22.0,8,0.00,,,0.00,,2013-05-25 00:41:00,
2013-05-24 17:52:00,72.0,10.0,30.14,WSW,238,11.0,21.0,9,0.00,,,0.00,,2013-05-25 00:52:00,
2013-05-24 18:01:00,70.0,11.0,30.13,SW,225,12.0,21.0,10,0.00,,,0.00,,2013-05-25 01:01:00,
2013-05-24 18:11:00,70.0,11.0,30.13,SW,225,12.0,21.0,10,0.00,,,0.00,,2013-05-25 01:11:00,
2013-05-24 18:21:00,70.0,13.0,30.13,SW,230,9.0,23.0,11,0.00,,,0.00,,2013-05-25 01:21:00,
2013-05-24 18:32:00,69.0,14.0,30.13,SSW,213,7.0,19.0,12,0.00,,,0.00,,2013-05-25 01:32:00,
2013-05-24 18:41:00,69.0,14.0,30.13,SSW,213,7.0,19.0,12,0.00,,,0.00,,2013-05-25 01:41:00,
2013-05-24 18:52:00,69.0,14.0,30.14,SW,226,8.0,17.0,12,0.00,,,0.00,,2013-05-25 01:52:00,
2013-05-24 19:01:00,69.0,14.0,30.14,SW,226,8.0,17.0,12,0.00,,,0.00,,2013-05-25 02:01:00,
2013-05-24 19:11:00,69.0,14.0,30.14,SW,226,8.0,17.0,12,0.00,,,0.00,,2013-05-25 02:11:00,
2013-05-24 19:21:00,67.0,16.0,30.14,SW,214,8.0,17.0,14,0.00,,,0.00,,2013-05-25 02:21:00,
2013-05-24 19:32:00,66.0,17.0,30.14,SW,235,8.0,16.0,15,0.00,,,0.00,,2013-05-25 02:32:00,
2013-05-24 19:42:00,66.0,17.0,30.14,SW,235,8.0,16.0,15,0.00,,,0.00,,2013-05-25 02:42:00,
2013-05-24 19:52:00,66.0,17.0,30.14,SW,234,9.0,17.0,15,0.00,,,0.00,,2013-05-25 02:52:00,
2013-05-24 20:01:00,66.0,17.0,30.14,SW,234,9.0,17.0,15,0.00,,,0.00,,2013-05-25 03:01:00,
2013-05-24 20:11:00,66.0,17.0,30.14,SW,234,9.0,17.0,15,0.00,,,0.00,,2013-05-25 03:11:00,
2013-05-24 20:21:00,64.0,18.0,30.15,WSW,255,5.0,15.0,17,0.00,,,0.00,,2013-05-25 03:21:00,
2013-05-24 20:33:00,63.0,19.0,30.15,WSW,249,4.0,11.0,18,0.00,,,0.00,,2013-05-25 03:33:00,
2013-05-24 20:43:00,63.0,19.0,30.15,WSW,249,4.0,11.0,18,0.00,,,0.00,,2013-05-25 03:43:00,
2013-05-24 20:53:00,63.0,19.0,30.15,WSW,256,7.0,15.0,18,0.00,,,0.00,,2013-05-25 03:53:00,
2013-05-24 21:02:00,64.0,18.0,30.15,WSW,251,10.0,19.0,17,0.00,,,0.00,,2013-05-25 04:02:00,
2013-05-24 21:12:00,64.0,18.0,30.15,WSW,251,10.0,19.0,17,0.00,,,0.00,,2013-05-25 04:12:00,
2013-05-24 21:23:00,64.0,18.0,30.15,WSW,251,10.0,19.0,17,0.00,,,0.00,,2013-05-25 04:23:00,
2013-05-24 21:32:00,63.0,19.0,30.15,WSW,258,15.0,23.0,18,0.00,,,0.00,,2013-05-25 04:32:00,
2013-05-24 21:43:00,63.0,19.0,30.15,WSW,258,15.0,23.0,18,0.00,,,0.00,,2013-05-25 04:43:00,
2013-05-24 21:52:00,63.0,19.0,30.15,West,262,11.0,24.0,18,0.00,,,0.00,,2013-05-25 04:52:00,
2013-05-24 22:02:00,63.0,20.0,30.15,WSW,246,11.0,20.0,19,0.00,,,0.00,,2013-05-25 05:02:00,
2013-05-24 22:11:00,63.0,20.0,30.15,WSW,246,11.0,20.0,19,0.00,,,0.00,,2013-05-25 05:11:00,
2013-05-24 22:22:00,63.0,20.0,30.15,WSW,240,8.0,23.0,19,0.00,,,0.00,,2013-05-25 05:22:00,
2013-05-24 22:32:00,63.0,21.0,30.14,WSW,254,11.0,23.0,20,0.00,,,0.00,,2013-05-25 05:32:00,
2013-05-24 22:42:00,63.0,21.0,30.14,WSW,254,11.0,23.0,20,0.00,,,0.00,,2013-05-25 05:42:00,
2013-05-24 22:52:00,63.0,21.0,30.14,WSW,241,10.0,21.0,20,0.00,,,0.00,,2013-05-25 05:52:00,
2013-05-24 23:01:00,63.0,21.0,30.14,WSW,245,10.0,23.0,20,0.00,,,0.00,,2013-05-25 06:01:00,
2013-05-24 23:11:00,62.0,22.0,30.13,WSW,242,10.0,23.0,21,0.00,,,0.00,,2013-05-25 06:11:00,
2013-05-24 23:21:00,62.0,22.0,30.13,WSW,242,10.0,23.0,21,0.00,,,0.00,,2013-05-25 06:21:00,
2013-05-24 23:32:00,62.0,22.0,30.13,WSW,247,11.0,21.0,21,0.00,,,0.00,,2013-05-25 06:32:00,
2013-05-24 23:42:00,62.0,22.0,30.13,WSW,247,11.0,21.0,21,0.00,,,0.00,,2013-05-25 06:42:00,
2013-05-24 23:52:00,62.0,22.0,30.14,WSW,244,11.0,21.0,21,0.00,,,0.00,,2013-05-25 06:52:00,